Startpagina
METAR-TAF:

METAR-TAF

Vliegvelden :

Loja, Ecuador

breedte: 03-59-45S, lengte: 079-22-19W, hoogte: 1236 m

Actueel weer

Dit bericht is 4 uur en het 10 minuten geleden gemaakt, om 23:00 UTC
Wind 10 kt uit het zuiden
Temperatuur 26°C
Vochtigheid 48%
Druk 1012 hPa
Zicht 10 km of meer
Gebroken wolken op 4000 ft

METAR: SECA 112300Z 18010KT 9999 BKN040 26/14 Q1012

Tijdstip: 22:10 (03:10 UTC)


TAF: ontbreekt

Waarnemingen en weersverwachtingen van meer dan 4000 vliegvelden (METAR en TAF).

De beschikbare stations zijn de gele en rode punten op de kaart.

Ga met uw muis naar het station om de naam te zien.

Klik dan om waarnemingen en weersverwachtingen te zien.

kaart wijzigen: klik op de groene knoppen met een zwart kruis om in te zoomen, op de groene knop met een streepje om uit te zoomen of op de groene pijlen voor aangrenzende kaarten.


METAR-TAF: